Time;durP1;ratioP1;P1;durP2;ratioP2;P2;SDS_P1;SDS_P2;PMS_P1;PMS_P2;Temp;Humidity;BMP_temperature;BMP_pressure;BME280_temperature;BME280_humidity;BME280_pressure;Samples;Min_cycle;Max_cycle;Signal;HPM_P1;HPM_P2
2023/01/14 00:01:58;;;;;;;;;1.00;1.00;;;;;21.29;45.79;101607.56;5077038;28;45254;-74
2023/01/14 00:04:24;;;;;;;;;2.00;1.00;;;;;21.29;46.22;101604.91;5077009;28;45344;-74
2023/01/14 00:06:50;;;;;;;;;1.00;1.00;;;;;21.27;46.00;101593.66;5077236;28;45400;-74
2023/01/14 00:09:15;;;;;;;;;2.33;0.00;;;;;21.24;46.03;101588.66;5077332;28;45470;-74
2023/01/14 00:11:47;;;;;;;;;0.00;0.00;;;;;21.26;46.03;101584.03;5076724;28;45431;-74
2023/01/14 00:14:21;;;;;;;;;0.00;0.00;;;;;21.21;45.79;101577.59;5076894;28;46344;-74
2023/01/14 00:16:46;;;;;;;;;1.00;1.00;;;;;21.24;45.97;101583.38;5076746;28;45312;-74
2023/01/14 00:19:12;;;;;;;;;0.33;0.33;;;;;21.13;46.12;101559.84;5076973;28;45234;-74
2023/01/14 00:21:40;;;;;;;;;1.67;0.00;;;;;21.22;45.87;101577.41;5077060;27;45559;-74
2023/01/14 00:24:06;;;;;;;;;1.00;1.00;;;;;21.22;46.03;101566.00;5076838;28;48181;-74
2023/01/14 00:26:32;;;;;;;;;0.00;0.00;;;;;21.12;45.75;101560.81;5076261;27;45368;-74
2023/01/14 00:28:57;;;;;;;;;1.00;1.00;;;;;21.20;45.87;101560.88;5076862;27;45344;-74
2023/01/14 00:31:25;;;;;;;;;1.00;1.00;;;;;21.21;46.31;101551.13;5076828;28;45574;-73
2023/01/14 00:33:51;;;;;;;;;1.67;0.00;;;;;21.12;45.60;101532.53;5076713;28;46520;-74
2023/01/14 00:36:19;;;;;;;;;1.00;0.00;;;;;21.17;45.66;101532.91;5075695;28;45632;-74
2023/01/14 00:38:45;;;;;;;;;2.00;0.33;;;;;21.18;45.94;101531.09;5076705;28;45300;-74
2023/01/14 00:41:14;;;;;;;;;1.00;1.00;;;;;21.17;46.05;101530.25;5074896;28;45571;-74
2023/01/14 00:43:42;;;;;;;;;0.33;0.00;;;;;21.17;45.75;101522.31;5076415;28;45352;-74
2023/01/14 00:46:11;;;;;;;;;1.67;0.00;;;;;21.17;45.83;101519.69;5076458;28;45216;-74
2023/01/14 00:48:37;;;;;;;;;0.33;0.33;;;;;21.17;45.91;101514.38;5076545;28;45458;-74
2023/01/14 00:51:03;;;;;;;;;0.67;0.67;;;;;21.16;45.77;101507.41;5076548;28;45425;-74
2023/01/14 00:53:29;;;;;;;;;2.33;1.00;;;;;21.15;45.91;101505.78;5076254;28;46928;-75
2023/01/14 00:55:55;;;;;;;;;1.00;1.00;;;;;21.14;45.93;101498.81;5075876;27;45420;-74
2023/01/14 00:58:20;;;;;;;;;0.00;0.00;;;;;21.13;46.06;101507.72;5076490;28;45375;-74
2023/01/14 01:00:45;;;;;;;;;3.00;1.00;;;;;21.04;46.01;101482.22;5076468;27;45300;-74
2023/01/14 01:03:12;;;;;;;;;2.00;1.00;;;;;21.14;46.01;101500.63;5074566;28;46204;-74
2023/01/14 01:05:39;;;;;;;;;0.00;0.00;;;;;21.14;46.00;101504.09;5076363;28;45297;-74
2023/01/14 01:08:06;;;;;;;;;3.00;1.33;;;;;21.14;45.78;101496.16;5076126;28;45388;-75
2023/01/14 01:10:34;;;;;;;;;1.00;1.00;;;;;21.15;45.61;101491.72;5075822;27;45442;-74
2023/01/14 01:13:00;;;;;;;;;0.00;0.00;;;;;21.15;46.07;101486.41;5076038;28;46083;-75
2023/01/14 01:15:26;;;;;;;;;1.00;0.00;;;;;21.13;45.98;101481.28;5076004;28;45282;-73
2023/01/14 01:17:51;;;;;;;;;2.00;2.00;;;;;21.15;45.65;101471.38;5076176;27;45250;-74
2023/01/14 01:20:17;;;;;;;;;6.00;1.00;;;;;21.17;45.52;101468.56;5076184;27;45262;-74
2023/01/14 01:22:42;;;;;;;;;2.33;0.00;;;;;21.17;45.53;101473.84;5075923;28;47125;-74
2023/01/14 01:25:08;;;;;;;;;2.33;1.00;;;;;21.18;45.69;101470.22;5075818;28;45289;-73
2023/01/14 01:27:33;;;;;;;;;2.33;1.00;;;;;21.18;45.70;101462.28;5076053;28;45285;-74
2023/01/14 01:29:58;;;;;;;;;1.33;1.33;;;;;21.18;45.62;101465.75;5076156;28;45310;-74
2023/01/14 01:32:25;;;;;;;;;2.75;1.00;;;;;21.18;45.63;101451.72;5075816;28;46146;-75
2023/01/14 01:34:50;;;;;;;;;1.33;0.00;;;;;21.11;46.11;101442.72;5075943;28;45330;-74
2023/01/14 01:37:15;;;;;;;;;1.33;0.00;;;;;21.18;45.52;101447.22;5075798;28;45288;-73
2023/01/14 01:39:41;;;;;;;;;1.67;1.33;;;;;21.16;45.92;101435.97;5075442;28;45355;-74
2023/01/14 01:42:12;;;;;;;;;0.67;0.67;;;;;21.19;45.39;101440.13;5075579;28;46722;-74
2023/01/14 01:44:38;;;;;;;;;3.00;0.33;;;;;21.17;45.56;101440.28;5075828;28;45519;-74
2023/01/14 01:47:03;;;;;;;;;0.00;0.00;;;;;21.16;45.46;101435.97;5076070;28;45327;-74
2023/01/14 01:49:33;;;;;;;;;2.00;0.67;;;;;21.16;45.76;101437.78;5079369;28;45301;-74
2023/01/14 01:52:03;;;;;;;;;0.00;0.00;;;;;21.16;45.75;101435.97;5079152;28;46365;-74
2023/01/14 01:54:34;;;;;;;;;0.00;0.00;;;;;21.16;45.64;101429.84;5078812;28;45260;-73
2023/01/14 01:57:01;;;;;;;;;0.00;0.00;;;;;21.14;45.52;101432.66;5079194;28;45371;-74
2023/01/14 01:59:34;;;;;;;;;0.00;0.00;;;;;21.12;45.68;101426.72;5079183;28;45356;-74
2023/01/14 02:01:59;;;;;;;;;0.33;0.33;;;;;21.13;45.45;101420.41;5078680;28;46280;-74
2023/01/14 02:04:24;;;;;;;;;0.00;0.00;;;;;21.13;45.88;101420.41;5078866;28;45404;-72
2023/01/14 02:06:50;;;;;;;;;0.33;0.00;;;;;21.14;45.38;101408.00;5078807;27;45334;-74
2023/01/14 02:09:17;;;;;;;;;1.00;0.67;;;;;21.14;45.48;101408.84;5079105;28;45381;-74
2023/01/14 02:11:46;;;;;;;;;1.67;1.00;;;;;21.13;45.92;101393.16;5078947;28;46265;-74
2023/01/14 02:14:14;;;;;;;;;1.00;1.00;;;;;21.13;45.96;101401.88;5078733;27;45354;-75
2023/01/14 02:16:51;;;;;;;;;0.00;0.00;;;;;21.12;45.59;101394.13;5078853;27;45376;-74
2023/01/14 02:19:32;;;;;;;;;2.67;1.00;;;;;21.12;45.84;101389.66;5078774;28;45301;-74
2023/01/14 02:22:21;;;;;;;;;1.00;1.00;;;;;21.11;45.36;101382.69;5078095;27;45403;-74
2023/01/14 02:25:03;;;;;;;;;0.00;0.00;;;;;21.11;45.51;101376.56;5078671;27;45332;-74
2023/01/14 02:27:47;;;;;;;;;0.67;0.00;;;;;21.11;45.76;101371.28;5078817;28;45424;-74
2023/01/14 02:30:42;;;;;;;;;0.00;0.00;;;;;21.10;45.89;101365.19;5078650;28;45554;-74
2023/01/14 02:33:14;;;;;;;;;1.00;1.00;;;;;21.09;45.97;101363.53;5078362;28;46845;-74
2023/01/14 02:35:49;;;;;;;;;1.00;1.00;;;;;21.10;45.63;101356.41;5078639;28;45232;-74
2023/01/14 02:38:40;;;;;;;;;0.00;0.00;;;;;21.09;45.66;101346.81;5078658;28;45261;-74
2023/01/14 02:41:21;;;;;;;;;1.00;0.00;;;;;20.99;45.83;101323.13;5078491;28;45376;-74
2023/01/14 02:44:09;;;;;;;;;1.00;1.00;;;;;21.08;45.88;101330.09;5078223;28;46429;-74
2023/01/14 02:47:00;;;;;;;;;0.00;0.00;;;;;21.07;45.43;101312.59;5078291;28;45456;-74
2023/01/14 02:49:30;;;;;;;;;2.00;0.00;;;;;21.08;45.66;101316.88;5064457;27;45450;-74
2023/01/14 02:51:57;;;;;;;;;0.33;0.33;;;;;21.09;45.42;101320.34;5077955;27;45344;-74
2023/01/14 02:54:23;;;;;;;;;0.33;0.00;;;;;21.06;45.51;101317.03;5078290;28;46978;-75
2023/01/14 02:56:51;;;;;;;;;0.33;0.33;;;;;21.10;45.46;101306.16;5078044;28;45440;-72
2023/01/14 02:59:28;;;;;;;;;2.00;0.00;;;;;21.10;45.50;101304.34;5077494;28;45510;-75
2023/01/14 03:02:01;;;;;;;;;0.00;0.00;;;;;21.11;45.63;101298.03;5077921;28;45312;-73
2023/01/14 03:04:38;;;;;;;;;1.00;1.00;;;;;21.12;45.54;101288.28;5077823;27;46236;-74
2023/01/14 03:07:11;;;;;;;;;1.33;0.00;;;;;21.13;45.81;101280.16;5077554;27;45313;-74
2023/01/14 03:09:43;;;;;;;;;0.00;0.00;;;;;21.13;45.81;101268.78;5078323;28;45371;-74
2023/01/14 03:12:31;;;;;;;;;1.00;1.00;;;;;21.13;45.51;101256.34;5078141;28;45305;-74
2023/01/14 03:15:06;;;;;;;;;0.00;0.00;;;;;21.13;45.94;101256.34;5077855;28;47179;-74
2023/01/14 03:18:00;;;;;;;;;3.67;2.00;;;;;21.13;45.69;101242.31;5077852;28;45339;-74
2023/01/14 03:20:31;;;;;;;;;0.33;0.00;;;;;21.13;46.05;101235.19;5077431;27;45431;-74
2023/01/14 03:23:00;;;;;;;;;1.00;1.00;;;;;21.13;45.51;101229.91;5077943;27;45335;-74
2023/01/14 03:25:30;;;;;;;;;0.00;0.00;;;;;21.13;45.61;101223.81;5077733;28;47143;-73
2023/01/14 03:27:59;;;;;;;;;0.00;0.00;;;;;21.13;45.47;101214.03;5077593;28;45426;-73
2023/01/14 03:30:30;;;;;;;;;1.00;1.00;;;;;21.12;45.47;101193.03;5077912;28;45217;-74
2023/01/14 03:32:59;;;;;;;;;0.00;0.00;;;;;21.11;45.40;101189.56;5077887;27;45343;-74
2023/01/14 03:35:34;;;;;;;;;3.00;0.00;;;;;21.12;45.83;101180.63;5077156;28;47203;-74
2023/01/14 03:38:23;;;;;;;;;0.33;0.33;;;;;21.10;45.85;101166.75;5077542;28;45419;-73
2023/01/14 03:40:52;;;;;;;;;0.33;0.00;;;;;21.10;45.88;101165.91;5077634;28;45331;-74
2023/01/14 03:43:29;;;;;;;;;0.67;0.67;;;;;21.10;45.49;101164.09;5077556;27;45288;-74
2023/01/14 03:45:56;;;;;;;;;2.00;0.00;;;;;21.10;45.64;101150.03;5059197;28;46227;-74
2023/01/14 03:48:21;;;;;;;;;1.00;0.00;;;;;21.08;45.46;101144.91;5077187;28;45402;-74
2023/01/14 03:50:57;;;;;;;;;2.00;0.00;;;;;21.08;45.67;101142.25;5077397;28;45264;-74
2023/01/14 03:53:25;;;;;;;;;1.00;0.00;;;;;20.97;45.83;101119.59;5077489;28;45349;-74
2023/01/14 03:55:50;;;;;;;;;1.00;0.00;;;;;21.09;45.49;101140.44;5077201;28;46165;-74
2023/01/14 03:58:32;;;;;;;;;0.00;0.00;;;;;21.07;45.42;101145.91;5076351;27;45327;-74
2023/01/14 04:01:06;;;;;;;;;1.00;1.00;;;;;21.08;45.53;101144.09;5077343;28;45407;-73
2023/01/14 04:03:32;;;;;;;;;0.00;0.00;;;;;21.08;45.63;101144.09;5076628;28;45448;-74
2023/01/14 04:05:58;;;;;;;;;0.00;0.00;;;;;21.06;45.40;101129.22;5077016;28;46312;-74
2023/01/14 04:08:24;;;;;;;;;2.67;0.67;;;;;21.06;45.50;101126.56;5076975;28;45425;-74
2023/01/14 04:10:50;;;;;;;;;0.67;0.67;;;;;21.06;45.35;101123.91;5076068;28;45313;-74
2023/01/14 04:16:01;;;;;;;;;2.00;0.00;;;;;21.06;45.48;101109.84;5076774;28;45315;-74
2023/01/14 04:18:27;;;;;;;;;1.00;1.00;;;;;21.00;45.82;101084.06;5076441;28;45259;-74
2023/01/14 04:20:53;;;;;;;;;0.00;0.00;;;;;21.02;45.80;101082.94;5076463;28;45245;-74
2023/01/14 04:23:18;;;;;;;;;0.00;0.00;;;;;21.04;45.81;101080.09;5058753;28;45416;-74
2023/01/14 04:25:43;;;;;;;;;0.00;0.00;;;;;21.06;45.43;101089.53;5092699;27;45275;-74
2023/01/14 04:28:09;;;;;;;;;2.00;1.00;;;;;21.03;45.58;101079.28;5076797;28;45286;-74
2023/01/14 04:30:34;;;;;;;;;1.33;0.00;;;;;21.01;45.82;101060.09;5076957;28;45220;-74
2023/01/14 04:33:00;;;;;;;;;1.00;0.00;;;;;21.05;45.80;101058.75;5076556;28;45381;-73
2023/01/14 04:35:25;;;;;;;;;0.00;0.00;;;;;21.06;45.81;101057.78;5076204;28;45510;-74
2023/01/14 04:37:54;;;;;;;;;0.00;0.00;;;;;21.05;46.00;101047.38;5076521;28;45378;-74
2023/01/14 04:40:22;;;;;;;;;1.00;1.00;;;;;21.07;45.68;101050.69;5076738;28;45420;-74
2023/01/14 04:42:50;;;;;;;;;0.00;0.00;;;;;21.07;45.74;101040.09;5076056;27;45455;-74
2023/01/14 04:45:16;;;;;;;;;0.00;0.00;;;;;21.09;45.41;101042.56;5058282;28;46076;-74
2023/01/14 04:47:42;;;;;;;;;0.00;0.00;;;;;20.98;45.57;101031.31;5076174;28;45403;-74
2023/01/14 04:52:52;;;;;;;;;0.33;0.00;;;;;21.11;45.48;101037.91;5076632;28;45383;-75
2023/01/14 04:55:19;;;;;;;;;0.33;0.33;;;;;21.11;45.80;101036.09;5076043;28;47297;-74
2023/01/14 04:57:44;;;;;;;;;0.00;0.00;;;;;21.10;45.69;101031.00;5076461;27;45336;-74
2023/01/14 05:00:10;;;;;;;;;0.67;0.67;;;;;21.11;45.68;101033.47;5076534;27;45311;-74
2023/01/14 05:02:36;;;;;;;;;0.00;0.00;;;;;21.11;45.74;101022.88;5075748;27;45420;-74
2023/01/14 05:05:02;;;;;;;;;0.00;0.00;;;;;21.03;45.81;101007.84;5076209;28;46279;-74
2023/01/14 05:07:27;;;;;;;;;0.00;0.00;;;;;21.11;45.75;101016.75;5076212;28;45332;-74
2023/01/14 05:09:52;;;;;;;;;1.00;1.00;;;;;21.10;45.75;101008.00;5076410;28;45308;-74
2023/01/14 05:12:17;;;;;;;;;1.00;0.00;;;;;21.10;45.20;100999.25;5076376;28;45309;-74
2023/01/14 05:14:43;;;;;;;;;0.33;0.33;;;;;21.03;45.49;100976.09;5076018;28;45245;-74
2023/01/14 05:17:08;;;;;;;;;0.00;0.00;;;;;21.10;45.34;100986.00;5074351;28;45261;-74
2023/01/14 05:19:33;;;;;;;;;0.67;0.67;;;;;21.09;45.56;100976.41;5075094;28;45273;-74
2023/01/14 05:22:00;;;;;;;;;1.00;0.00;;;;;21.09;45.44;100969.31;5075415;28;45432;-74
2023/01/14 05:24:25;;;;;;;;;0.00;0.00;;;;;21.10;45.20;100972.78;5076031;28;46193;-74
2023/01/14 05:26:51;;;;;;;;;0.00;0.00;;;;;21.06;45.37;100959.06;5075720;28;47313;-74
2023/01/14 05:29:16;;;;;;;;;0.67;0.67;;;;;21.09;45.33;100949.97;5075885;28;45389;-74
2023/01/14 05:31:41;;;;;;;;;2.00;0.00;;;;;21.06;45.48;100941.38;5075701;28;45397;-74
2023/01/14 05:34:07;;;;;;;;;0.33;0.33;;;;;21.06;45.40;100933.44;5075858;28;45348;-74
2023/01/14 05:36:32;;;;;;;;;1.33;0.67;;;;;21.05;45.37;100923.03;5075864;28;45470;-74
2023/01/14 05:38:57;;;;;;;;;0.00;0.00;;;;;21.05;45.60;100907.97;5076194;28;45344;-74
2023/01/14 05:41:23;;;;;;;;;0.00;0.00;;;;;21.05;45.39;100910.63;5075837;27;45366;-74
2023/01/14 05:46:32;;;;;;;;;2.00;0.00;;;;;20.96;45.15;100871.94;5075387;28;45810;-74
2023/01/14 05:48:57;;;;;;;;;0.00;0.00;;;;;21.04;45.45;100885.19;5075922;28;45483;-74
2023/01/14 05:51:23;;;;;;;;;0.00;0.00;;;;;21.04;45.87;100887.81;5075739;28;45476;-74
2023/01/14 05:53:48;;;;;;;;;2.33;1.00;;;;;21.04;45.31;100881.69;5075633;28;45986;-74
2023/01/14 05:56:13;;;;;;;;;0.00;0.00;;;;;20.96;45.27;100874.59;5075643;27;45550;-74
2023/01/14 05:58:39;;;;;;;;;0.00;0.00;;;;;21.01;45.39;100864.34;5075720;28;45482;-74
2023/01/14 06:06:38;;;;;;;;;0.67;0.00;;;;;20.94;45.47;100832.47;5095704;27;45390;-74
2023/01/14 06:09:09;;;;;;;;;1.00;0.00;;;;;21.03;45.87;100837.72;5096022;27;45453;-74
2023/01/14 06:11:35;;;;;;;;;0.00;0.00;;;;;21.03;45.90;100843.84;5095897;27;45327;-74
2023/01/14 06:14:02;;;;;;;;;2.33;0.00;;;;;21.03;45.34;100835.06;5095234;27;46270;-74
2023/01/14 06:16:39;;;;;;;;;0.00;0.00;;;;;21.03;45.53;100832.44;5095951;27;45333;-74
2023/01/14 06:19:12;;;;;;;;;0.00;0.00;;;;;21.03;45.58;100833.25;5095719;27;45445;-74
2023/01/14 06:21:38;;;;;;;;;0.33;0.00;;;;;21.04;45.59;100837.56;5095519;27;45494;-74
2023/01/14 06:24:04;;;;;;;;;0.00;0.00;;;;;21.05;45.42;100833.91;5095424;27;45354;-73
2023/01/14 06:26:32;;;;;;;;;0.33;0.33;;;;;21.06;45.52;100834.72;5095339;27;45649;-74
2023/01/14 06:29:00;;;;;;;;;2.67;1.00;;;;;21.06;45.29;100843.50;5095504;27;45368;-73
2023/01/14 06:31:26;;;;;;;;;0.00;0.00;;;;;21.07;45.65;100841.69;5095596;27;45422;-74
2023/01/14 06:33:51;;;;;;;;;3.33;0.33;;;;;21.09;45.42;100839.69;5095418;27;46292;-74
2023/01/14 06:36:16;;;;;;;;;1.67;1.00;;;;;21.09;45.49;100825.63;5098743;27;45368;-74
2023/01/14 06:38:42;;;;;;;;;1.33;0.00;;;;;21.10;45.29;100814.06;5099177;27;45337;-74
2023/01/14 06:41:09;;;;;;;;;0.00;0.00;;;;;21.06;45.37;100798.53;5099059;27;45314;-74
2023/01/14 06:43:35;;;;;;;;;0.00;0.00;;;;;21.09;45.36;100792.06;5098409;27;45327;-74
2023/01/14 06:46:01;;;;;;;;;1.00;0.00;;;;;21.10;45.58;100774.38;5098826;27;45313;-74
2023/01/14 06:48:27;;;;;;;;;0.00;0.00;;;;;21.10;45.57;100777.84;5098807;27;45390;-74
2023/01/14 06:50:52;;;;;;;;;2.00;1.00;;;;;21.05;45.45;100759.03;5098054;27;45393;-74
2023/01/14 06:53:18;;;;;;;;;0.00;0.00;;;;;21.11;45.33;100752.19;5098643;27;45314;-74
2023/01/14 06:55:44;;;;;;;;;0.00;0.00;;;;;21.09;45.71;100744.44;5098467;27;45487;-74
2023/01/14 06:58:10;;;;;;;;;1.00;1.00;;;;;21.09;45.39;100740.97;5080125;27;45400;-74
2023/01/14 07:00:35;;;;;;;;;0.00;0.00;;;;;21.09;45.74;100743.63;5098804;27;45289;-74
2023/01/14 07:03:01;;;;;;;;;2.00;0.00;;;;;21.02;45.87;100725.81;5098268;27;46049;-74
2023/01/14 07:05:26;;;;;;;;;0.00;0.00;;;;;21.07;45.45;100725.28;5098515;27;45368;-74
2023/01/14 07:07:52;;;;;;;;;2.00;0.00;;;;;21.07;45.54;100722.63;5098517;27;45396;-74
2023/01/14 07:10:17;;;;;;;;;0.00;0.00;;;;;20.96;45.32;100702.69;5098652;27;45419;-74
2023/01/14 07:12:45;;;;;;;;;1.33;0.00;;;;;21.08;45.78;100704.94;5097918;27;47275;-74
2023/01/14 07:15:11;;;;;;;;;0.67;0.00;;;;;20.96;45.76;100682.34;5098581;27;45389;-74
2023/01/14 07:17:36;;;;;;;;;0.00;0.00;;;;;21.06;45.78;100686.59;5098430;27;45352;-74
2023/01/14 07:20:02;;;;;;;;;0.00;0.00;;;;;21.06;45.72;100691.88;5098348;27;45332;-74
2023/01/14 07:22:27;;;;;;;;;0.00;0.00;;;;;21.06;45.36;100682.13;5098222;27;45635;-74
2023/01/14 07:24:52;;;;;;;;;2.00;0.00;;;;;21.06;45.56;100686.59;5098159;27;46161;-74
2023/01/14 07:27:18;;;;;;;;;3.00;0.00;;;;;20.97;45.35;100675.25;5097933;27;45503;-74
2023/01/14 07:29:43;;;;;;;;;0.00;0.00;;;;;21.04;45.21;100673.56;5098182;27;45425;-74
2023/01/14 07:32:08;;;;;;;;;0.00;0.00;;;;;20.95;45.61;100648.13;5098133;27;47122;-74
2023/01/14 07:34:34;;;;;;;;;1.00;0.67;;;;;21.04;45.54;100660.34;5097951;27;45351;-75
2023/01/14 07:36:59;;;;;;;;;1.33;1.33;;;;;21.05;45.59;100650.59;5079910;27;45406;-74
2023/01/14 07:39:24;;;;;;;;;0.00;0.00;;;;;21.05;45.48;100635.50;5098144;27;45476;-74
2023/01/14 07:41:50;;;;;;;;;1.00;0.00;;;;;21.04;45.81;100631.22;5097362;27;46291;-74
2023/01/14 07:44:15;;;;;;;;;0.00;0.00;;;;;21.03;45.65;100621.66;5097954;27;45427;-74
2023/01/14 07:46:40;;;;;;;;;0.00;0.00;;;;;21.03;45.64;100618.16;5097767;27;45347;-74
2023/01/14 07:49:06;;;;;;;;;1.00;0.00;;;;;21.03;45.32;100624.28;5097879;27;45384;-74
2023/01/14 07:51:31;;;;;;;;;0.00;0.00;;;;;21.04;45.61;100619.81;5097844;27;45342;-74
2023/01/14 07:53:56;;;;;;;;;0.00;0.00;;;;;21.03;45.45;100608.41;5097738;27;45462;-75
2023/01/14 07:56:22;;;;;;;;;1.00;0.00;;;;;21.03;45.52;100597.00;5097363;27;45334;-75
2023/01/14 07:58:48;;;;;;;;;1.00;1.00;;;;;21.05;45.47;100610.91;5097790;27;45485;-74
2023/01/14 08:01:13;;;;;;;;;0.00;0.00;;;;;21.03;45.70;100603.13;5097500;27;46023;-74
2023/01/14 08:03:38;;;;;;;;;1.00;0.00;;;;;21.05;45.60;100601.13;5097523;27;45294;-74
2023/01/14 08:06:06;;;;;;;;;0.33;0.00;;;;;20.95;45.85;100577.53;5097588;27;45373;-74
2023/01/14 08:08:32;;;;;;;;;1.33;0.33;;;;;21.02;45.51;100588.28;5097568;27;45237;-74
2023/01/14 08:11:01;;;;;;;;;0.00;0.00;;;;;21.01;45.41;100576.03;5097034;27;45409;-74
2023/01/14 08:13:27;;;;;;;;;0.67;0.00;;;;;21.08;45.36;100583.28;5097238;27;45304;-74
2023/01/14 08:16:00;;;;;;;;;0.00;0.00;;;;;21.09;45.36;100579.59;5097486;27;45206;-74
2023/01/14 08:18:26;;;;;;;;;0.00;0.00;;;;;21.09;45.51;100580.44;5097166;27;45339;-74
2023/01/14 08:21:05;;;;;;;;;0.00;0.00;;;;;21.04;45.40;100554.53;5097013;27;46125;-75
2023/01/14 08:23:32;;;;;;;;;0.00;0.00;;;;;21.10;45.59;100558.28;5097366;27;45333;-74
2023/01/14 08:26:03;;;;;;;;;0.00;0.00;;;;;21.10;45.26;100558.28;5097090;27;45716;-74
2023/01/14 08:28:28;;;;;;;;;0.33;0.00;;;;;21.02;45.35;100529.25;5097414;27;45540;-75
2023/01/14 08:31:11;;;;;;;;;0.00;0.00;;;;;21.11;45.49;100538.75;5113074;27;45922;-75
2023/01/14 08:33:37;;;;;;;;;0.00;0.00;;;;;21.10;45.42;100523.06;5097276;27;45365;-74
2023/01/14 08:36:05;;;;;;;;;0.67;0.00;;;;;21.10;45.43;100515.13;5097204;27;45382;-74
2023/01/14 08:38:32;;;;;;;;;0.00;0.00;;;;;21.08;45.57;100531.16;5096781;27;45311;-74
2023/01/14 08:40:57;;;;;;;;;0.00;0.00;;;;;21.09;45.63;100535.47;5078360;27;46154;-74
2023/01/14 08:43:22;;;;;;;;;0.00;0.00;;;;;21.09;45.31;100526.69;5097060;27;45785;-74
2023/01/14 08:45:50;;;;;;;;;0.00;0.00;;;;;21.10;45.46;100531.00;5097158;27;45432;-75
2023/01/14 08:48:15;;;;;;;;;0.33;0.00;;;;;21.09;45.44;100514.31;5097013;27;45350;-74
2023/01/14 08:50:41;;;;;;;;;0.00;0.00;;;;;21.07;45.46;100508.38;5096696;27;47077;-74
2023/01/14 08:53:06;;;;;;;;;1.00;0.00;;;;;21.09;44.63;100509.00;5096313;27;45338;-74
2023/01/14 08:55:31;;;;;;;;;0.00;0.00;;;;;20.96;44.00;100501.66;5096977;27;45384;-75
2023/01/14 08:57:57;;;;;;;;;0.00;0.00;;;;;20.68;43.65;100481.13;5096023;27;45358;-75
2023/01/14 09:00:23;;;;;;;;;0.00;0.00;;;;;20.66;44.39;100493.72;5096481;27;46542;-75
2023/01/14 09:02:49;;;;;;;;;1.00;0.00;;;;;20.69;44.50;100503.91;5096357;27;45282;-75
2023/01/14 09:05:14;;;;;;;;;0.00;0.00;;;;;20.69;44.47;100503.91;5096731;27;45287;-74
2023/01/14 09:18:37;;;;;;;;;0.00;0.00;;;;;20.77;44.97;100487.97;5096659;27;45363;-74
2023/01/14 09:21:03;;;;;;;;;0.00;0.00;;;;;20.78;44.70;100492.25;5096175;27;47130;-72
2023/01/14 09:23:29;;;;;;;;;0.00;0.00;;;;;20.74;44.74;100470.66;5095800;27;45372;-78
2023/01/14 09:25:54;;;;;;;;;0.33;0.00;;;;;20.80;44.98;100471.75;5094965;27;46360;-73
2023/01/14 09:28:19;;;;;;;;;0.33;0.00;;;;;20.80;45.27;100463.81;5096003;27;45286;-73
2023/01/14 09:30:46;;;;;;;;;1.00;0.00;;;;;20.83;45.15;100444.94;5095177;27;46411;-73
2023/01/14 09:33:12;;;;;;;;;0.00;0.00;;;;;20.85;45.25;100458.81;5095495;27;45301;-73
2023/01/14 09:35:37;;;;;;;;;0.00;0.00;;;;;20.84;45.45;100454.50;5095946;27;45280;-73
2023/01/14 09:38:02;;;;;;;;;0.00;0.00;;;;;20.84;44.84;100441.28;5095888;27;45634;-73
2023/01/14 09:40:28;;;;;;;;;0.00;0.00;;;;;20.91;44.95;100457.25;5095971;27;45399;-73
2023/01/14 09:42:53;;;;;;;;;1.33;0.00;;;;;20.91;45.41;100457.25;5096094;27;45530;-73
2023/01/14 09:45:33;;;;;;;;;0.00;0.00;;;;;20.94;45.35;100435.75;5096196;27;45344;-73
2023/01/14 09:48:10;;;;;;;;;0.00;0.00;;;;;20.87;45.05;100439.31;5096218;27;45291;-73
2023/01/14 09:51:17;;;;;;;;;1.00;0.00;;;;;20.99;45.12;100443.13;5095882;27;47473;-73
2023/01/14 09:53:45;;;;;;;;;1.00;1.00;;;;;21.00;45.27;100463.28;5032830;28;45454;-73
2023/01/14 09:56:16;;;;;;;;;0.00;0.00;;;;;21.01;45.04;100437.66;5033026;28;45439;-73
2023/01/14 09:58:53;;;;;;;;;0.00;0.00;;;;;21.03;45.61;100441.78;5033040;28;45504;-73
2023/01/14 10:01:43;;;;;;;;;0.00;0.00;;;;;21.04;44.98;100439.97;5031295;28;46017;-73
2023/01/14 10:04:24;;;;;;;;;0.00;0.00;;;;;21.05;45.31;100442.41;5017475;28;45274;-73
2023/01/14 10:06:54;;;;;;;;;0.00;0.00;;;;;21.06;45.28;100443.25;5032560;28;45398;-73
2023/01/14 10:09:45;;;;;;;;;1.00;0.00;;;;;21.06;45.38;100428.19;5035033;28;45257;-73
2023/01/14 10:12:28;;;;;;;;;0.00;0.00;;;;;21.06;45.39;100427.38;5036131;28;47038;-73
2023/01/14 10:15:01;;;;;;;;;2.00;0.00;;;;;21.03;45.10;100419.78;5036135;28;45471;-73
2023/01/14 10:17:33;;;;;;;;;1.00;0.00;;;;;21.09;45.31;100423.53;5019501;28;45284;-73
2023/01/14 10:20:05;;;;;;;;;0.33;0.00;;;;;21.09;45.18;100434.13;5035629;28;45506;-73
2023/01/14 10:22:39;;;;;;;;;0.00;0.00;;;;;21.07;45.18;100426.38;5035905;28;46078;-73
2023/01/14 10:25:15;;;;;;;;;0.00;0.00;;;;;21.03;45.05;100414.50;5035981;28;45387;-73
2023/01/14 10:27:42;;;;;;;;;0.00;0.00;;;;;21.04;45.27;100411.69;5036091;28;45338;-73
2023/01/14 10:30:29;;;;;;;;;0.00;0.00;;;;;21.08;45.31;100414.78;5052283;28;45321;-73
2023/01/14 10:32:56;;;;;;;;;0.00;0.00;;;;;21.09;45.03;100405.00;5078267;27;46211;-73
2023/01/14 10:35:34;;;;;;;;;0.67;0.00;;;;;21.09;44.96;100395.25;5078211;28;45620;-73
2023/01/14 10:38:00;;;;;;;;;0.00;0.00;;;;;21.08;45.25;100380.38;5078589;28;45443;-73
2023/01/14 10:40:27;;;;;;;;;0.00;0.00;;;;;21.09;45.53;100389.16;5078603;28;45380;-73
2023/01/14 10:42:55;;;;;;;;;0.00;0.00;;;;;21.01;45.41;100372.38;5078027;27;46104;-73
2023/01/14 10:45:20;;;;;;;;;0.00;0.00;;;;;21.09;45.35;100381.22;5078269;28;45335;-73
2023/01/14 10:47:49;;;;;;;;;0.00;0.00;;;;;21.07;45.18;100376.13;5078328;28;45218;-73
2023/01/14 10:50:17;;;;;;;;;0.00;0.00;;;;;21.09;45.02;100378.56;5078175;28;45351;-73
2023/01/14 10:52:43;;;;;;;;;0.67;0.00;;;;;21.09;45.28;100368.00;5078030;27;47097;-73
2023/01/14 10:55:11;;;;;;;;;0.00;0.00;;;;;21.09;45.17;100352.94;5077923;27;45407;-73
2023/01/14 10:57:43;;;;;;;;;0.00;0.00;;;;;21.08;45.54;100353.94;5078214;28;45427;-73
2023/01/14 11:00:36;;;;;;;;;1.67;0.00;;;;;21.09;45.64;100347.66;5078159;28;45474;-74
2023/01/14 11:03:07;;;;;;;;;0.00;0.00;;;;;21.05;45.41;100333.16;5077788;27;47111;-73
2023/01/14 11:05:35;;;;;;;;;0.00;0.00;;;;;21.10;45.32;100344.00;5077648;28;45329;-73
2023/01/14 11:08:38;;;;;;;;;0.00;0.00;;;;;21.09;45.19;100331.78;5078088;27;45422;-73
2023/01/14 11:11:14;;;;;;;;;1.00;0.00;;;;;21.10;45.32;100322.03;5078131;28;45398;-73
2023/01/14 11:13:48;;;;;;;;;0.00;0.00;;;;;21.10;45.08;100324.66;5077773;28;47411;-73
2023/01/14 11:16:19;;;;;;;;;0.00;0.00;;;;;21.09;45.28;100321.19;5077772;28;45431;-73
2023/01/14 11:18:51;;;;;;;;;0.00;0.00;;;;;21.10;45.60;100314.09;5077639;28;45439;-73
2023/01/14 11:21:20;;;;;;;;;0.00;0.00;;;;;21.10;44.98;100316.72;5077005;27;45285;-73
2023/01/14 11:23:59;;;;;;;;;1.00;0.00;;;;;21.11;45.45;100310.41;5077521;28;47221;-73
2023/01/14 11:26:27;;;;;;;;;0.00;0.00;;;;;21.11;45.30;100299.84;5077433;28;45401;-73
2023/01/14 11:28:59;;;;;;;;;3.00;0.00;;;;;21.12;45.41;100288.25;5077952;28;45367;-73
2023/01/14 11:31:35;;;;;;;;;0.00;0.00;;;;;21.13;45.40;100287.28;5077560;28;45472;-73
2023/01/14 11:34:01;;;;;;;;;0.00;0.00;;;;;21.13;45.18;100282.78;5076461;27;45472;-73
2023/01/14 11:36:29;;;;;;;;;1.00;0.00;;;;;21.08;45.17;100273.78;5077590;28;45428;-73
2023/01/14 11:38:57;;;;;;;;;0.00;0.00;;;;;21.14;45.64;100265.09;5077438;28;45458;-73
2023/01/14 11:41:34;;;;;;;;;0.00;0.00;;;;;21.14;45.52;100273.84;5077547;28;45424;-73
2023/01/14 11:44:08;;;;;;;;;0.67;0.67;;;;;21.13;45.30;100269.53;5077264;28;47351;-73
2023/01/14 11:46:33;;;;;;;;;0.00;0.00;;;;;21.15;45.23;100249.03;5077185;28;45439;-73
2023/01/14 11:49:20;;;;;;;;;0.00;0.00;;;;;21.16;45.50;100263.88;5077167;28;45377;-73
2023/01/14 11:52:00;;;;;;;;;0.00;0.00;;;;;21.15;45.31;100246.41;5077479;28;45328;-73
2023/01/14 11:54:44;;;;;;;;;0.00;0.00;;;;;21.15;45.37;100246.41;5077058;28;46310;-73
2023/01/14 11:57:15;;;;;;;;;1.33;0.00;;;;;21.16;45.67;100223.38;5056958;28;45409;-73
2023/01/14 11:59:42;;;;;;;;;0.00;0.00;;;;;21.15;45.47;100227.88;5056901;28;45443;-73